Time;durP1;ratioP1;P1;durP2;ratioP2;P2;SDS_P1;SDS_P2;PMS_P1;PMS_P2;Temp;Humidity;BMP_temperature;BMP_pressure;BME280_temperature;BME280_humidity;BME280_pressure;Samples;Min_cycle;Max_cycle;Signal;HPM_P1;HPM_P2
2022/08/25 00:00:40;;;;;;;;;31.25;30.00;;;;;;;;5070420;27;52253;-60
2022/08/25 00:03:05;;;;;;;;;31.00;28.75;;;;;;;;5081813;27;50898;-60
2022/08/25 00:05:31;;;;;;;;;30.50;27.75;;;;;;;;5077771;27;50863;-60
2022/08/25 00:07:56;;;;;;;;;26.50;25.75;;;;;;;;5075176;27;51012;-58
2022/08/25 00:10:21;;;;;;;;;28.75;28.25;;;;;;;;5082033;27;51718;-60
2022/08/25 00:12:46;;;;;;;;;25.75;25.25;;;;;;;;5081474;27;51149;-59
2022/08/25 00:15:12;;;;;;;;;24.25;24.25;;;;;;;;5067532;27;50886;-59
2022/08/25 00:17:37;;;;;;;;;27.00;23.50;;;;;;;;5085068;27;51374;-59
2022/08/25 00:20:03;;;;;;;;;25.75;25.50;;;;;;;;5069204;27;51863;-59
2022/08/25 00:22:28;;;;;;;;;27.75;23.00;;;;;;;;5079206;27;51011;-59
2022/08/25 00:24:53;;;;;;;;;23.25;21.25;;;;;;;;5070768;27;50992;-59
2022/08/25 00:27:19;;;;;;;;;24.50;23.00;;;;;;;;5081649;27;51306;-60
2022/08/25 00:29:45;;;;;;;;;23.75;23.50;;;;;;;;5065578;27;51178;-60
2022/08/25 00:32:10;;;;;;;;;23.00;22.50;;;;;;;;5065339;28;51116;-60
2022/08/25 00:34:37;;;;;;;;;23.25;23.00;;;;;;;;5067400;27;50977;-60
2022/08/25 00:37:03;;;;;;;;;23.75;23.00;;;;;;;;5058720;28;51398;-59
2022/08/25 00:39:29;;;;;;;;;23.25;22.50;;;;;;;;5074396;28;51976;-59
2022/08/25 00:41:55;;;;;;;;;22.00;22.00;;;;;;;;5073819;28;51022;-58
2022/08/25 00:44:21;;;;;;;;;21.25;21.25;;;;;;;;5066400;28;51012;-58
2022/08/25 00:46:51;;;;;;;;;20.75;19.75;;;;;;;;5065140;28;51058;-59
2022/08/25 00:49:19;;;;;;;;;25.00;24.00;;;;;;;;5053844;28;51866;-58
2022/08/25 00:51:54;;;;;;;;;21.00;20.75;;;;;;;;5055743;27;51108;-59
2022/08/25 00:54:22;;;;;;;;;24.75;23.75;;;;;;;;5053309;28;51228;-58
2022/08/25 00:56:50;;;;;;;;;23.50;21.75;;;;;;;;5071726;28;51410;-59
2022/08/25 00:59:16;;;;;;;;;22.75;21.00;;;;;;;;5061705;27;51787;-60
2022/08/25 01:01:41;;;;;;;;;22.75;22.00;;;;;;;;5072200;27;51696;-59
2022/08/25 01:04:06;;;;;;;;;20.75;20.00;;;;;;;;5072626;28;51120;-59
2022/08/25 01:06:32;;;;;;;;;22.25;22.25;;;;;;;;5067944;28;50957;-59
2022/08/25 01:08:58;;;;;;;;;23.75;22.50;;;;;;;;5046298;28;52548;-59
2022/08/25 01:11:23;;;;;;;;;22.00;21.25;;;;;;;;5040947;28;51082;-59
2022/08/25 01:13:51;;;;;;;;;20.50;20.50;;;;;;;;5048861;28;51188;-59
2022/08/25 01:16:16;;;;;;;;;21.00;19.75;;;;;;;;5051044;28;51101;-59
2022/08/25 01:18:50;;;;;;;;;23.25;21.25;;;;;;;;5050969;28;52289;-59
2022/08/25 01:21:16;;;;;;;;;22.50;20.75;;;;;;;;5045929;28;51100;-59
2022/08/25 01:23:42;;;;;;;;;19.25;18.50;;;;;;;;5051746;28;51054;-60
2022/08/25 01:26:11;;;;;;;;;21.25;20.25;;;;;;;;5030723;28;52872;-59
2022/08/25 01:28:37;;;;;;;;;19.50;18.50;;;;;;;;5034874;28;54062;-59
2022/08/25 01:31:03;;;;;;;;;19.00;19.00;;;;;;;;5048300;28;51082;-59
2022/08/25 01:33:29;;;;;;;;;19.25;18.50;;;;;;;;5044417;28;51266;-58
2022/08/25 01:35:54;;;;;;;;;19.25;18.50;;;;;;;;5033419;28;51595;-59
2022/08/25 01:38:19;;;;;;;;;15.50;13.75;;;;;;;;5052078;28;52420;-59
2022/08/25 01:40:45;;;;;;;;;14.00;14.00;;;;;;;;5053654;28;51021;-59
2022/08/25 01:43:13;;;;;;;;;14.75;14.50;;;;;;;;5045200;28;51089;-59
2022/08/25 01:45:40;;;;;;;;;15.25;14.25;;;;;;;;5045936;28;51119;-59
2022/08/25 01:48:06;;;;;;;;;15.00;14.75;;;;;;;;5045378;28;51102;-59
2022/08/25 01:50:31;;;;;;;;;15.75;15.75;;;;;;;;5040670;28;51074;-59
2022/08/25 01:53:10;;;;;;;;;13.25;13.00;;;;;;;;5026822;28;51017;-58
2022/08/25 01:55:50;;;;;;;;;13.33;13.00;;;;;;;;5058910;28;51003;-59
2022/08/25 01:58:16;;;;;;;;;13.50;13.50;;;;;;;;5058233;28;50952;-58
2022/08/25 02:00:44;;;;;;;;;11.33;11.33;;;;;;;;5059263;28;50943;-62
2022/08/25 02:03:09;;;;;;;;;11.33;11.33;;;;;;;;5050024;28;51144;-58
2022/08/25 02:05:34;;;;;;;;;13.00;13.00;;;;;;;;5051298;28;50962;-59
2022/08/25 02:08:00;;;;;;;;;11.67;11.67;;;;;;;;5064497;28;50956;-60
2022/08/25 02:10:26;;;;;;;;;12.00;12.00;;;;;;;;5073214;28;50986;-59
2022/08/25 02:12:51;;;;;;;;;12.00;12.00;;;;;;;;5072084;28;51011;-59
2022/08/25 02:15:16;;;;;;;;;12.00;11.00;;;;;;;;5070737;28;51382;-59
2022/08/25 02:17:41;;;;;;;;;11.00;10.25;;;;;;;;5064916;28;52317;-59
2022/08/25 02:20:08;;;;;;;;;12.00;10.67;;;;;;;;5056119;28;53255;-59
2022/08/25 02:22:33;;;;;;;;;12.00;12.00;;;;;;;;5061491;28;51134;-60
2022/08/25 02:24:58;;;;;;;;;9.00;9.00;;;;;;;;5073284;28;51307;-60
2022/08/25 02:27:24;;;;;;;;;12.33;12.00;;;;;;;;5070546;28;52286;-59
2022/08/25 02:29:49;;;;;;;;;13.00;13.00;;;;;;;;5062354;28;51141;-60
2022/08/25 02:32:14;;;;;;;;;13.00;11.00;;;;;;;;5069122;28;51164;-59
2022/08/25 02:34:40;;;;;;;;;12.33;12.00;;;;;;;;5073203;28;51001;-59
2022/08/25 02:37:05;;;;;;;;;13.33;12.67;;;;;;;;5061986;28;51033;-60
2022/08/25 02:39:31;;;;;;;;;12.00;12.00;;;;;;;;5071667;28;50975;-63
2022/08/25 02:41:56;;;;;;;;;13.67;12.00;;;;;;;;5068402;28;51005;-59
2022/08/25 02:44:21;;;;;;;;;12.00;12.00;;;;;;;;5060804;28;51165;-60
2022/08/25 02:46:47;;;;;;;;;12.33;11.67;;;;;;;;5062078;28;51135;-60
2022/08/25 02:49:12;;;;;;;;;12.50;12.50;;;;;;;;5061711;28;51007;-60
2022/08/25 02:51:38;;;;;;;;;13.33;13.00;;;;;;;;5060637;28;51755;-60
2022/08/25 02:54:04;;;;;;;;;12.33;11.67;;;;;;;;5065447;28;51148;-60
2022/08/25 02:56:29;;;;;;;;;14.67;12.67;;;;;;;;5064643;28;52050;-59
2022/08/25 02:58:55;;;;;;;;;11.67;11.67;;;;;;;;5073008;28;51004;-59
2022/08/25 03:01:20;;;;;;;;;13.00;12.25;;;;;;;;5064805;27;51330;-59
2022/08/25 03:03:45;;;;;;;;;13.67;13.00;;;;;;;;5054797;28;52303;-59
2022/08/25 03:06:12;;;;;;;;;0.00;0.00;;;;;;;;5060430;28;51900;-60
2022/08/25 03:08:38;;;;;;;;;13.25;12.50;;;;;;;;5076083;28;51080;-59
2022/08/25 03:11:04;;;;;;;;;14.00;13.00;;;;;;;;5063529;28;51045;-59
2022/08/25 03:13:29;;;;;;;;;12.00;11.00;;;;;;;;5064881;28;51061;-61
2022/08/25 03:15:54;;;;;;;;;12.00;11.00;;;;;;;;5069109;28;51148;-59
2022/08/25 03:18:21;;;;;;;;;13.00;13.00;;;;;;;;5070885;28;51104;-60
2022/08/25 03:20:47;;;;;;;;;13.33;13.33;;;;;;;;5072120;28;51086;-60
2022/08/25 03:23:12;;;;;;;;;12.67;12.00;;;;;;;;5070805;28;51239;-60
2022/08/25 03:28:21;;;;;;;;;12.00;11.00;;;;;;;;5066766;28;51038;-60
2022/08/25 03:30:47;;;;;;;;;13.00;12.00;;;;;;;;5074719;28;51205;-60
2022/08/25 03:33:12;;;;;;;;;13.75;13.75;;;;;;;;5073228;27;51132;-60
2022/08/25 03:35:37;;;;;;;;;11.00;10.67;;;;;;;;5097846;27;51087;-59
2022/08/25 03:38:03;;;;;;;;;11.00;11.00;;;;;;;;5071751;28;51888;-60
2022/08/25 03:40:28;;;;;;;;;13.25;12.00;;;;;;;;5060668;28;51003;-60
2022/08/25 03:42:55;;;;;;;;;14.25;14.00;;;;;;;;5075655;28;51278;-59
2022/08/25 03:45:21;;;;;;;;;14.00;14.00;;;;;;;;5070805;28;51972;-60
2022/08/25 03:47:47;;;;;;;;;13.50;13.50;;;;;;;;5056631;28;50930;-59
2022/08/25 03:50:13;;;;;;;;;11.25;11.25;;;;;;;;5064563;28;51121;-60
2022/08/25 03:52:39;;;;;;;;;11.33;11.33;;;;;;;;5063324;28;51078;-60
2022/08/25 03:55:05;;;;;;;;;14.75;13.75;;;;;;;;5057663;27;52002;-59
2022/08/25 03:57:31;;;;;;;;;10.00;10.00;;;;;;;;5061260;28;51101;-59
2022/08/25 03:59:56;;;;;;;;;11.00;11.00;;;;;;;;5073039;28;51289;-60
2022/08/25 04:02:21;;;;;;;;;13.67;11.33;;;;;;;;5068232;28;51360;-60
2022/08/25 04:04:46;;;;;;;;;12.00;12.00;;;;;;;;5070472;28;52110;-59
2022/08/25 04:07:11;;;;;;;;;12.00;12.00;;;;;;;;5068919;28;51296;-60
2022/08/25 04:09:37;;;;;;;;;12.00;12.00;;;;;;;;5066993;28;51208;-60
2022/08/25 04:12:02;;;;;;;;;13.00;13.00;;;;;;;;5066175;28;51215;-59
2022/08/25 04:14:27;;;;;;;;;13.00;12.00;;;;;;;;5071055;28;51213;-59
2022/08/25 04:16:52;;;;;;;;;11.00;11.00;;;;;;;;5052886;28;50948;-59
2022/08/25 04:19:19;;;;;;;;;12.00;12.00;;;;;;;;5062472;28;52706;-59
2022/08/25 04:21:44;;;;;;;;;12.67;12.67;;;;;;;;5061081;28;51184;-59
2022/08/25 04:24:11;;;;;;;;;15.75;14.50;;;;;;;;5059539;28;51135;-58
2022/08/25 04:26:41;;;;;;;;;13.67;13.67;;;;;;;;5064914;28;51137;-59
2022/08/25 04:29:08;;;;;;;;;14.00;14.00;;;;;;;;5064433;28;51212;-58
2022/08/25 04:31:34;;;;;;;;;13.33;13.00;;;;;;;;5074981;27;51362;-59
2022/08/25 04:34:03;;;;;;;;;14.67;12.67;;;;;;;;5059810;27;51816;-59
2022/08/25 04:36:28;;;;;;;;;15.00;14.00;;;;;;;;5068024;28;51045;-59
2022/08/25 04:38:53;;;;;;;;;15.00;14.00;;;;;;;;5073493;28;51055;-59
2022/08/25 04:41:19;;;;;;;;;15.75;15.00;;;;;;;;5075013;28;50885;-59
2022/08/25 04:43:45;;;;;;;;;13.33;13.33;;;;;;;;5068559;28;52536;-59
2022/08/25 04:46:12;;;;;;;;;13.67;13.00;;;;;;;;5072836;28;50871;-58
2022/08/25 04:48:38;;;;;;;;;13.33;12.67;;;;;;;;5067427;28;51209;-59
2022/08/25 04:51:08;;;;;;;;;14.00;13.00;;;;;;;;5055243;28;51161;-59
2022/08/25 04:53:33;;;;;;;;;10.67;10.67;;;;;;;;5073517;28;51094;-60
2022/08/25 04:55:59;;;;;;;;;13.33;13.33;;;;;;;;5063068;28;51095;-59
2022/08/25 04:58:24;;;;;;;;;14.00;13.67;;;;;;;;5069732;28;50965;-60
2022/08/25 05:00:49;;;;;;;;;14.50;14.00;;;;;;;;5071754;27;51066;-60
2022/08/25 05:03:14;;;;;;;;;13.67;13.33;;;;;;;;5070029;27;51342;-60
2022/08/25 05:05:40;;;;;;;;;14.00;12.00;;;;;;;;5057933;28;51892;-60
2022/08/25 05:08:05;;;;;;;;;14.00;13.75;;;;;;;;5071160;28;51096;-60
2022/08/25 05:10:31;;;;;;;;;12.00;12.00;;;;;;;;5054735;28;51111;-60
2022/08/25 05:12:56;;;;;;;;;16.00;15.67;;;;;;;;5066056;28;52251;-60
2022/08/25 05:18:05;;;;;;;;;13.33;13.00;;;;;;;;5061887;28;51071;-60
2022/08/25 05:20:30;;;;;;;;;6.50;6.00;;;;;;;;5057974;28;51248;-59
2022/08/25 05:22:58;;;;;;;;;12.00;12.00;;;;;;;;5073184;28;52064;-58
2022/08/25 05:25:24;;;;;;;;;14.33;12.67;;;;;;;;5056334;28;52519;-60
2022/08/25 05:27:49;;;;;;;;;12.75;12.00;;;;;;;;5054122;28;51146;-59
2022/08/25 05:30:14;;;;;;;;;14.33;13.67;;;;;;;;5067135;28;50927;-60
2022/08/25 05:32:39;;;;;;;;;15.67;15.67;;;;;;;;5054989;28;51147;-60
2022/08/25 05:35:05;;;;;;;;;15.75;15.50;;;;;;;;5065152;28;51294;-60
2022/08/25 05:37:31;;;;;;;;;15.00;14.00;;;;;;;;5060701;28;51102;-60
2022/08/25 05:39:56;;;;;;;;;14.50;13.00;;;;;;;;5086436;27;51527;-60
2022/08/25 05:42:22;;;;;;;;;13.00;13.00;;;;;;;;5073597;28;51834;-60
2022/08/25 05:44:47;;;;;;;;;14.00;14.00;;;;;;;;5072222;27;51052;-60
2022/08/25 05:47:12;;;;;;;;;9.00;9.00;;;;;;;;5068605;27;51081;-59
2022/08/25 05:49:37;;;;;;;;;12.33;11.67;;;;;;;;5069483;28;51444;-59
2022/08/25 05:52:03;;;;;;;;;16.00;15.33;;;;;;;;5072993;28;51012;-59
2022/08/25 05:54:28;;;;;;;;;13.00;13.00;;;;;;;;5073419;27;50916;-60
2022/08/25 05:56:53;;;;;;;;;16.33;15.33;;;;;;;;5073329;28;50962;-59
2022/08/25 05:59:19;;;;;;;;;16.00;15.00;;;;;;;;5073165;28;50962;-60
2022/08/25 06:04:28;;;;;;;;;15.00;14.75;;;;;;;;5072033;28;51146;-60
2022/08/25 06:06:54;;;;;;;;;15.00;15.00;;;;;;;;5072904;27;50967;-59
2022/08/25 06:09:20;;;;;;;;;15.00;14.33;;;;;;;;5073091;27;51386;-59
2022/08/25 06:11:46;;;;;;;;;11.00;10.67;;;;;;;;5069818;27;51069;-59
2022/08/25 06:14:11;;;;;;;;;11.67;11.67;;;;;;;;5069848;27;51190;-59
2022/08/25 06:16:37;;;;;;;;;14.00;14.00;;;;;;;;5075897;27;50902;-58
2022/08/25 06:19:03;;;;;;;;;14.33;13.67;;;;;;;;5073202;28;51057;-59
2022/08/25 06:21:29;;;;;;;;;12.00;12.00;;;;;;;;5072441;28;50887;-60
2022/08/25 06:23:54;;;;;;;;;14.67;13.33;;;;;;;;5072612;28;50914;-59
2022/08/25 06:26:19;;;;;;;;;11.67;11.33;;;;;;;;5072865;28;50910;-59
2022/08/25 06:28:45;;;;;;;;;14.33;13.67;;;;;;;;5062942;28;51038;-60
2022/08/25 06:31:10;;;;;;;;;10.00;10.00;;;;;;;;5071524;28;51032;-60
2022/08/25 06:33:35;;;;;;;;;11.00;10.67;;;;;;;;5069771;28;50962;-60
2022/08/25 06:36:01;;;;;;;;;13.00;11.67;;;;;;;;5072716;27;51127;-60
2022/08/25 06:38:26;;;;;;;;;9.00;9.00;;;;;;;;5071277;28;51050;-60
2022/08/25 06:40:51;;;;;;;;;11.00;11.00;;;;;;;;5071118;28;53244;-60
2022/08/25 06:43:18;;;;;;;;;11.67;10.67;;;;;;;;5072210;28;50980;-60
2022/08/25 06:45:47;;;;;;;;;10.67;10.67;;;;;;;;5072435;28;51103;-60
2022/08/25 06:48:12;;;;;;;;;6.00;6.00;;;;;;;;5072196;28;51393;-59
2022/08/25 06:50:38;;;;;;;;;10.67;9.67;;;;;;;;5070721;28;52986;-60
2022/08/25 06:53:04;;;;;;;;;10.00;9.00;;;;;;;;5071766;28;51004;-59
2022/08/25 06:55:29;;;;;;;;;9.50;9.50;;;;;;;;5072173;28;50990;-60
2022/08/25 06:57:54;;;;;;;;;12.00;11.75;;;;;;;;5072249;28;51038;-60
2022/08/25 07:00:20;;;;;;;;;11.00;11.00;;;;;;;;5071415;28;52035;-60
2022/08/25 07:02:46;;;;;;;;;13.33;11.67;;;;;;;;5069708;27;51111;-60
2022/08/25 07:05:11;;;;;;;;;9.00;8.67;;;;;;;;5072187;27;51024;-60
2022/08/25 07:07:36;;;;;;;;;10.00;10.00;;;;;;;;5070364;28;51380;-60
2022/08/25 07:10:02;;;;;;;;;10.67;10.00;;;;;;;;5072018;28;52219;-60
2022/08/25 07:12:27;;;;;;;;;11.33;11.33;;;;;;;;5072099;27;51258;-60
2022/08/25 07:14:53;;;;;;;;;12.00;11.00;;;;;;;;5071906;28;51244;-60
2022/08/25 07:17:18;;;;;;;;;10.33;10.33;;;;;;;;5072223;28;50963;-60
2022/08/25 07:19:44;;;;;;;;;9.00;9.00;;;;;;;;5070170;28;53248;-59
2022/08/25 07:22:09;;;;;;;;;13.67;12.00;;;;;;;;5070676;28;51118;-60
2022/08/25 07:24:34;;;;;;;;;12.00;12.00;;;;;;;;5070720;28;51392;-60
2022/08/25 07:27:00;;;;;;;;;12.00;12.00;;;;;;;;5071950;27;51010;-60
2022/08/25 07:29:27;;;;;;;;;13.75;13.00;;;;;;;;5071351;28;52038;-60
2022/08/25 07:31:52;;;;;;;;;10.00;10.00;;;;;;;;5072089;27;50899;-60
2022/08/25 07:37:04;;;;;;;;;12.50;11.75;;;;;;;;5072144;28;51095;-60
2022/08/25 07:39:30;;;;;;;;;13.25;12.75;;;;;;;;5071368;27;50964;-60
2022/08/25 07:41:56;;;;;;;;;12.75;12.75;;;;;;;;5071613;28;50951;-60
2022/08/25 07:44:22;;;;;;;;;12.50;12.50;;;;;;;;5072350;28;51249;-60
2022/08/25 07:46:48;;;;;;;;;13.00;12.25;;;;;;;;5075637;28;50972;-60
2022/08/25 07:49:14;;;;;;;;;14.00;13.00;;;;;;;;5074266;27;51935;-60
2022/08/25 07:51:39;;;;;;;;;12.25;11.75;;;;;;;;5074872;27;51062;-60
2022/08/25 07:54:04;;;;;;;;;14.00;13.00;;;;;;;;5074468;28;51190;-62
2022/08/25 07:56:30;;;;;;;;;11.50;11.25;;;;;;;;5074972;27;50920;-59
2022/08/25 07:58:55;;;;;;;;;14.00;13.00;;;;;;;;5074365;28;52217;-59
2022/08/25 08:01:22;;;;;;;;;12.75;12.75;;;;;;;;5074827;28;51015;-60
2022/08/25 08:03:47;;;;;;;;;4.25;4.25;;;;;;;;5074837;27;51007;-63
2022/08/25 08:06:15;;;;;;;;;12.00;11.75;;;;;;;;5074603;28;51031;-61
2022/08/25 08:08:43;;;;;;;;;10.25;10.25;;;;;;;;5074367;28;52104;-59
2022/08/25 08:11:18;;;;;;;;;14.00;12.25;;;;;;;;5074921;27;51159;-59
2022/08/25 08:13:45;;;;;;;;;11.75;11.75;;;;;;;;5083391;27;51101;-60
2022/08/25 08:16:11;;;;;;;;;12.00;11.50;;;;;;;;5075574;27;50925;-62
2022/08/25 08:18:36;;;;;;;;;11.75;11.75;;;;;;;;5080113;27;53485;-60
2022/08/25 08:21:01;;;;;;;;;12.00;12.00;;;;;;;;5088328;27;51147;-60
2022/08/25 08:23:28;;;;;;;;;12.50;12.50;;;;;;;;5080310;27;51316;-59
2022/08/25 08:25:56;;;;;;;;;11.00;11.00;;;;;;;;5077574;27;51115;-60
2022/08/25 08:28:21;;;;;;;;;10.50;10.00;;;;;;;;5086956;27;52347;-59
2022/08/25 08:30:47;;;;;;;;;12.75;12.75;;;;;;;;5086186;27;50821;-60
2022/08/25 08:33:12;;;;;;;;;11.25;11.25;;;;;;;;5076882;27;51184;-61
2022/08/25 08:35:38;;;;;;;;;12.75;11.75;;;;;;;;5073172;27;51379;-61
2022/08/25 08:38:03;;;;;;;;;12.75;12.75;;;;;;;;5086732;27;51212;-60
2022/08/25 08:40:29;;;;;;;;;12.75;11.75;;;;;;;;5083996;27;51095;-60
2022/08/25 08:42:57;;;;;;;;;10.50;10.50;;;;;;;;5075266;27;51132;-61
2022/08/25 08:45:30;;;;;;;;;3.75;3.75;;;;;;;;5073825;28;51331;-59
2022/08/25 08:48:21;;;;;;;;;11.00;10.25;;;;;;;;5068638;27;52289;-60
2022/08/25 08:51:04;;;;;;;;;11.00;10.50;;;;;;;;5070854;27;51295;-60
2022/08/25 08:53:41;;;;;;;;;12.50;12.50;;;;;;;;5054683;27;51160;-59
2022/08/25 08:56:13;;;;;;;;;12.00;10.75;;;;;;;;5088606;27;50955;-59
2022/08/25 08:58:42;;;;;;;;;9.75;9.00;;;;;;;;5078251;27;51125;-59
2022/08/25 09:01:09;;;;;;;;;8.75;8.50;;;;;;;;5074975;27;51177;-60
2022/08/25 09:03:39;;;;;;;;;11.25;11.25;;;;;;;;5071042;27;51224;-59
2022/08/25 09:06:06;;;;;;;;;10.00;9.75;;;;;;;;5076626;27;50973;-61
2022/08/25 09:08:32;;;;;;;;;12.75;12.00;;;;;;;;5077497;27;51034;-61
2022/08/25 09:11:07;;;;;;;;;11.00;10.75;;;;;;;;5073478;27;51118;-60
2022/08/25 09:13:48;;;;;;;;;13.00;11.50;;;;;;;;5088293;27;51128;-61
2022/08/25 09:19:27;;;;;;;;;11.75;11.25;;;;;;;;5076742;27;51418;-60
2022/08/25 09:22:11;;;;;;;;;13.00;13.00;;;;;;;;5088926;27;51096;-61
2022/08/25 09:24:55;;;;;;;;;13.50;11.50;;;;;;;;5073104;27;51047;-60
2022/08/25 09:27:26;;;;;;;;;11.50;11.50;;;;;;;;5072157;27;51236;-60
2022/08/25 09:30:13;;;;;;;;;16.75;16.75;;;;;;;;5080262;27;51469;-60
2022/08/25 09:32:40;;;;;;;;;12.00;12.00;;;;;;;;5074205;27;51187;-61
2022/08/25 09:35:07;;;;;;;;;13.00;13.00;;;;;;;;5077369;27;51112;-60
2022/08/25 09:37:32;;;;;;;;;12.00;12.00;;;;;;;;5077237;27;51354;-60
2022/08/25 09:39:57;;;;;;;;;15.50;15.00;;;;;;;;5079516;27;51335;-61
2022/08/25 09:42:42;;;;;;;;;12.75;12.50;;;;;;;;5063888;27;51091;-60
2022/08/25 09:45:10;;;;;;;;;13.75;13.50;;;;;;;;5077775;27;50969;-60
2022/08/25 09:47:40;;;;;;;;;13.75;12.75;;;;;;;;5082723;27;51179;-60
2022/08/25 09:50:13;;;;;;;;;13.75;13.75;;;;;;;;5080585;27;51299;-61
2022/08/25 09:52:39;;;;;;;;;14.00;13.50;;;;;;;;5075632;27;51152;-60
2022/08/25 09:55:04;;;;;;;;;15.50;14.50;;;;;;;;5075190;27;51180;-60
2022/08/25 09:57:41;;;;;;;;;16.50;15.25;;;;;;;;5086806;27;50957;-60
2022/08/25 10:00:10;;;;;;;;;14.50;13.75;;;;;;;;5066569;27;52729;-60
2022/08/25 10:02:35;;;;;;;;;12.00;12.00;;;;;;;;5072004;28;51018;-60
2022/08/25 10:05:16;;;;;;;;;16.25;15.25;;;;;;;;5085475;27;51076;-60
2022/08/25 10:07:48;;;;;;;;;14.50;13.50;;;;;;;;5080619;27;51359;-60
2022/08/25 10:10:33;;;;;;;;;14.25;14.25;;;;;;;;5074035;27;52848;-60
2022/08/25 10:13:00;;;;;;;;;14.00;13.25;;;;;;;;5085924;27;50978;-60
2022/08/25 10:15:30;;;;;;;;;15.25;15.25;;;;;;;;5071388;27;51152;-61
2022/08/25 10:17:56;;;;;;;;;15.50;14.50;;;;;;;;5064492;27;51239;-61
2022/08/25 10:20:23;;;;;;;;;12.50;12.50;;;;;;;;5084164;27;51806;-59
2022/08/25 10:22:49;;;;;;;;;11.25;10.75;;;;;;;;5082008;27;51088;-62
2022/08/25 10:25:17;;;;;;;;;12.75;12.50;;;;;;;;5080590;27;50945;-61
2022/08/25 10:28:06;;;;;;;;;12.75;12.75;;;;;;;;5068741;27;51287;-61
2022/08/25 10:30:46;;;;;;;;;13.00;13.00;;;;;;;;5081493;27;52402;-61
2022/08/25 10:33:11;;;;;;;;;10.75;10.75;;;;;;;;5065736;27;51141;-61
2022/08/25 10:35:40;;;;;;;;;13.00;12.00;;;;;;;;5073400;27;51073;-61
2022/08/25 10:38:14;;;;;;;;;12.00;12.00;;;;;;;;5083310;27;50939;-60
2022/08/25 10:40:45;;;;;;;;;12.00;11.00;;;;;;;;5060360;28;51749;-60
2022/08/25 10:43:18;;;;;;;;;11.50;11.00;;;;;;;;5068153;27;51095;-60
2022/08/25 10:45:55;;;;;;;;;11.75;11.75;;;;;;;;5079962;27;51011;-60
2022/08/25 10:48:29;;;;;;;;;10.25;10.25;;;;;;;;5083714;27;51168;-60
2022/08/25 10:50:57;;;;;;;;;12.00;11.00;;;;;;;;5078905;27;52090;-61
2022/08/25 10:53:41;;;;;;;;;12.50;12.50;;;;;;;;5072396;27;51121;-61
2022/08/25 10:56:21;;;;;;;;;10.75;10.75;;;;;;;;5081818;27;51104;-60
2022/08/25 10:58:58;;;;;;;;;12.00;12.00;;;;;;;;5077194;27;51374;-61
2022/08/25 11:01:33;;;;;;;;;11.00;11.00;;;;;;;;5070527;27;53602;-61
2022/08/25 11:04:01;;;;;;;;;11.25;11.25;;;;;;;;5068080;27;51192;-60
2022/08/25 11:06:37;;;;;;;;;12.00;11.00;;;;;;;;5077014;27;51228;-60
2022/08/25 11:09:07;;;;;;;;;11.50;11.50;;;;;;;;5069170;28;51321;-60
2022/08/25 11:11:32;;;;;;;;;11.00;11.00;;;;;;;;5058480;28;52004;-60
2022/08/25 11:13:59;;;;;;;;;11.50;11.50;;;;;;;;5070417;28;51008;-60
2022/08/25 11:16:24;;;;;;;;;12.25;11.50;;;;;;;;5080873;27;51076;-59
2022/08/25 11:18:56;;;;;;;;;14.00;12.00;;;;;;;;5082139;27;51333;-60
2022/08/25 11:21:30;;;;;;;;;12.00;12.00;;;;;;;;5074910;27;51087;-60
2022/08/25 11:24:04;;;;;;;;;14.00;14.00;;;;;;;;5076920;27;50929;-61
2022/08/25 11:26:33;;;;;;;;;11.75;11.75;;;;;;;;5089927;27;51123;-60
2022/08/25 11:29:13;;;;;;;;;12.33;11.67;;;;;;;;5074646;27;51017;-61
2022/08/25 11:31:41;;;;;;;;;12.25;12.25;;;;;;;;5074715;27;51002;-61
2022/08/25 11:34:13;;;;;;;;;14.00;12.67;;;;;;;;5082459;27;51085;-61
2022/08/25 11:36:40;;;;;;;;;11.00;11.00;;;;;;;;5074217;27;51198;-59
2022/08/25 11:39:24;;;;;;;;;13.75;13.75;;;;;;;;5084586;27;51417;-60
2022/08/25 11:42:08;;;;;;;;;13.75;13.75;;;;;;;;5083609;27;51008;-59
2022/08/25 11:44:51;;;;;;;;;12.75;12.25;;;;;;;;5075944;27;51197;-60
2022/08/25 11:47:16;;;;;;;;;12.00;12.00;;;;;;;;5070228;27;52119;-61
2022/08/25 11:49:48;;;;;;;;;14.00;14.00;;;;;;;;5067987;27;51183;-60
2022/08/25 11:52:31;;;;;;;;;12.75;11.75;;;;;;;;5065111;27;51486;-61
2022/08/25 11:55:15;;;;;;;;;12.75;12.75;;;;;;;;5062305;27;51541;-62
2022/08/25 11:57:41;;;;;;;;;12.00;12.00;;;;;;;;5077299;27;50933;-61
2022/08/25 12:00:09;;;;;;;;;14.00;13.00;;;;;;;;5084102;27;51285;-59
2022/08/25 12:02:35;;;;;;;;;11.25;11.25;;;;;;;;5076122;27;51053;-60
2022/08/25 12:05:02;;;;;;;;;13.00;13.00;;;;;;;;5067511;27;51414;-60
2022/08/25 12:07:29;;;;;;;;;15.75;13.25;;;;;;;;5082790;27;51064;-60
2022/08/25 12:09:54;;;;;;;;;12.00;11.50;;;;;;;;5080726;27;51069;-59
2022/08/25 12:12:28;;;;;;;;;14.75;14.75;;;;;;;;5064283;27;52038;-61
2022/08/25 12:14:53;;;;;;;;;13.25;13.25;;;;;;;;5077496;27;51073;-60
2022/08/25 12:17:23;;;;;;;;;12.75;12.75;;;;;;;;5084760;27;51072;-60
2022/08/25 12:19:50;;;;;;;;;11.25;11.00;;;;;;;;5074531;27;51053;-61
2022/08/25 12:22:18;;;;;;;;;14.00;13.75;;;;;;;;5077684;27;51167;-60
2022/08/25 12:24:52;;;;;;;;;13.00;12.33;;;;;;;;5068175;27;51105;-61
2022/08/25 12:27:37;;;;;;;;;14.00;14.00;;;;;;;;5070379;27;51219;-59
2022/08/25 12:30:14;;;;;;;;;13.00;12.33;;;;;;;;5058816;27;51390;-60
2022/08/25 12:32:48;;;;;;;;;13.25;12.50;;;;;;;;5077257;27;51329;-60
2022/08/25 12:35:16;;;;;;;;;14.00;13.00;;;;;;;;5067868;27;51030;-60
2022/08/25 12:37:59;;;;;;;;;12.33;11.67;;;;;;;;5079883;27;51102;-59
2022/08/25 12:40:27;;;;;;;;;12.00;11.25;;;;;;;;5070073;27;51164;-59
2022/08/25 12:43:05;;;;;;;;;14.25;13.00;;;;;;;;5079932;27;52073;-60
2022/08/25 12:45:35;;;;;;;;;11.50;11.25;;;;;;;;5082023;27;51482;-59
2022/08/25 12:48:20;;;;;;;;;11.75;11.75;;;;;;;;5076177;27;51001;-60
2022/08/25 12:50:49;;;;;;;;;12.75;12.00;;;;;;;;5044879;27;51248;-59
2022/08/25 12:53:44;;;;;;;;;11.50;11.50;;;;;;;;5077525;27;51320;-61
2022/08/25 12:56:26;;;;;;;;;11.00;11.00;;;;;;;;5061939;27;50974;-59
2022/08/25 12:59:11;;;;;;;;;12.00;12.00;;;;;;;;5066050;27;51234;-60
2022/08/25 13:01:55;;;;;;;;;11.67;10.67;;;;;;;;5071674;27;51165;-60
2022/08/25 13:04:26;;;;;;;;;11.33;11.00;;;;;;;;5067082;27;51895;-59
2022/08/25 13:06:57;;;;;;;;;13.50;13.50;;;;;;;;5077107;27;52109;-60
2022/08/25 13:09:41;;;;;;;;;13.50;13.50;;;;;;;;5072107;28;51160;-60
2022/08/25 13:12:06;;;;;;;;;10.67;10.67;;;;;;;;5071784;28;51960;-60
2022/08/25 13:14:39;;;;;;;;;11.50;11.50;;;;;;;;5073250;27;52096;-60
2022/08/25 13:17:05;;;;;;;;;9.00;9.00;;;;;;;;5067179;28;51122;-59
2022/08/25 13:19:30;;;;;;;;;14.50;13.75;;;;;;;;5071539;27;50985;-59
2022/08/25 13:21:57;;;;;;;;;9.00;9.00;;;;;;;;5072798;28;50986;-59
2022/08/25 13:24:31;;;;;;;;;8.33;8.33;;;;;;;;5072157;27;51426;-59
2022/08/25 13:26:59;;;;;;;;;11.33;11.00;;;;;;;;5070727;28;51075;-60
2022/08/25 13:29:26;;;;;;;;;12.25;12.25;;;;;;;;5068658;27;51228;-60
2022/08/25 13:31:56;;;;;;;;;14.33;12.33;;;;;;;;5072056;27;51378;-60
2022/08/25 13:34:23;;;;;;;;;11.33;11.33;;;;;;;;5067473;28;52743;-60
2022/08/25 13:39:34;;;;;;;;;11.00;11.00;;;;;;;;5072643;28;50942;-60
2022/08/25 13:42:00;;;;;;;;;11.33;11.00;;;;;;;;5065154;27;51091;-60
2022/08/25 13:44:26;;;;;;;;;10.67;10.67;;;;;;;;5071665;28;51406;-59
2022/08/25 13:47:14;;;;;;;;;12.67;12.67;;;;;;;;5072087;28;51147;-61
2022/08/25 13:49:41;;;;;;;;;11.00;11.00;;;;;;;;5058369;28;51093;-60
2022/08/25 13:52:14;;;;;;;;;11.00;11.00;;;;;;;;5072223;28;51277;-59
2022/08/25 13:54:40;;;;;;;;;10.00;10.00;;;;;;;;5071687;28;52279;-59
2022/08/25 13:57:17;;;;;;;;;17.00;17.00;;;;;;;;5071862;27;51138;-60
2022/08/25 13:59:46;;;;;;;;;11.00;10.67;;;;;;;;5071503;27;51119;-60
2022/08/25 14:02:12;;;;;;;;;10.67;10.67;;;;;;;;5072467;28;51274;-60
2022/08/25 14:04:40;;;;;;;;;11.00;11.00;;;;;;;;5071503;28;51745;-60
2022/08/25 14:07:25;;;;;;;;;9.33;9.33;;;;;;;;5079166;27;51087;-62
2022/08/25 14:09:53;;;;;;;;;12.00;10.33;;;;;;;;5068593;28;51034;-59
2022/08/25 14:12:45;;;;;;;;;9.33;9.00;;;;;;;;5077983;27;51249;-61
2022/08/25 14:15:10;;;;;;;;;11.00;11.00;;;;;;;;5055192;28;51006;-61
2022/08/25 14:17:36;;;;;;;;;12.00;11.00;;;;;;;;5070100;28;51041;-60
2022/08/25 14:20:01;;;;;;;;;11.33;10.67;;;;;;;;5052147;28;51173;-60
2022/08/25 14:22:27;;;;;;;;;8.67;8.67;;;;;;;;5050985;28;51309;-60
2022/08/25 14:24:52;;;;;;;;;9.67;9.67;;;;;;;;5070032;28;50913;-59
2022/08/25 14:27:18;;;;;;;;;10.33;10.33;;;;;;;;5069830;27;51115;-61
2022/08/25 14:29:43;;;;;;;;;10.67;10.67;;;;;;;;5070878;27;51616;-59
2022/08/25 14:32:09;;;;;;;;;13.00;12.67;;;;;;;;5070147;28;50958;-59
2022/08/25 14:34:35;;;;;;;;;11.00;10.67;;;;;;;;5064892;28;51989;-60
2022/08/25 14:37:05;;;;;;;;;12.00;11.00;;;;;;;;5069944;28;50943;-59
2022/08/25 14:39:30;;;;;;;;;11.00;10.00;;;;;;;;5069589;28;51212;-60
2022/08/25 14:41:55;;;;;;;;;8.00;8.00;;;;;;;;5069618;28;51405;-59